Time;durP1;ratioP1;P1;durP2;ratioP2;P2;SDS_P1;SDS_P2;PMS_P1;PMS_P2;Temp;Humidity;BMP_temperature;BMP_pressure;BME280_temperature;BME280_humidity;BME280_pressure;Samples;Min_cycle;Max_cycle;Signal;HPM_P1;HPM_P2
2022/10/13 00:00:50;;;;;;;;;13.67;13.33;;;;;;;;5018290;28;46243;-68
2022/10/13 00:03:16;;;;;;;;;14.33;13.00;;;;;;;;5017830;28;45472;-68
2022/10/13 00:05:42;;;;;;;;;13.33;13.33;;;;;;;;5018499;28;45388;-68
2022/10/13 00:08:08;;;;;;;;;14.00;14.00;;;;;;;;5015311;28;45845;-68
2022/10/13 00:10:35;;;;;;;;;17.00;14.33;;;;;;;;5017996;28;45416;-68
2022/10/13 00:13:00;;;;;;;;;13.67;12.33;;;;;;;;5018561;28;45250;-68
2022/10/13 00:15:25;;;;;;;;;13.67;13.67;;;;;;;;5016755;28;45465;-68
2022/10/13 00:17:51;;;;;;;;;14.33;14.33;;;;;;;;5017772;28;45399;-68
2022/10/13 00:20:16;;;;;;;;;13.67;11.67;;;;;;;;5017798;28;45490;-68
2022/10/13 00:22:41;;;;;;;;;15.00;12.33;;;;;;;;5018069;28;45415;-69
2022/10/13 00:25:07;;;;;;;;;14.00;14.00;;;;;;;;5018317;28;45455;-69
2022/10/13 00:27:32;;;;;;;;;15.00;13.33;;;;;;;;5018298;28;45207;-69
2022/10/13 00:29:57;;;;;;;;;16.67;14.00;;;;;;;;5017234;28;45928;-68
2022/10/13 00:32:22;;;;;;;;;13.67;13.67;;;;;;;;5011027;28;45375;-68
2022/10/13 00:34:47;;;;;;;;;13.33;13.33;;;;;;;;5017639;28;45445;-68
2022/10/13 00:37:13;;;;;;;;;16.00;14.00;;;;;;;;5012608;28;45520;-69
2022/10/13 00:39:38;;;;;;;;;22.00;13.67;;;;;;;;5017587;28;46411;-68
2022/10/13 00:42:05;;;;;;;;;14.67;14.00;;;;;;;;5017206;28;45461;-68
2022/10/13 00:44:49;;;;;;;;;14.33;12.67;;;;;;;;5016565;28;45251;-69
2022/10/13 00:47:14;;;;;;;;;12.33;11.67;;;;;;;;5017835;28;45234;-69
2022/10/13 00:49:40;;;;;;;;;13.00;13.00;;;;;;;;5017663;28;46718;-68
2022/10/13 00:52:05;;;;;;;;;17.00;14.00;;;;;;;;5017447;28;45262;-68
2022/10/13 00:54:30;;;;;;;;;11.00;11.00;;;;;;;;5011616;28;45504;-68
2022/10/13 00:56:56;;;;;;;;;12.67;11.67;;;;;;;;5016534;28;45417;-68
2022/10/13 00:59:27;;;;;;;;;13.00;11.00;;;;;;;;5017628;28;46490;-69
2022/10/13 01:01:53;;;;;;;;;20.33;17.00;;;;;;;;5016961;28;45428;-68
2022/10/13 01:04:21;;;;;;;;;15.67;13.67;;;;;;;;5001600;28;45472;-68
2022/10/13 01:06:47;;;;;;;;;12.00;11.33;;;;;;;;5017499;28;45501;-68
2022/10/13 01:09:12;;;;;;;;;14.33;14.33;;;;;;;;5017238;28;46231;-69
2022/10/13 01:11:58;;;;;;;;;15.00;13.00;;;;;;;;5014112;28;45485;-68
2022/10/13 01:14:32;;;;;;;;;13.33;13.00;;;;;;;;5003194;28;45509;-68
2022/10/13 01:17:04;;;;;;;;;14.33;14.33;;;;;;;;5017024;28;45361;-68
2022/10/13 01:19:35;;;;;;;;;15.00;13.67;;;;;;;;5016751;28;46713;-68
2022/10/13 01:22:12;;;;;;;;;14.67;12.00;;;;;;;;5016965;28;45306;-68
2022/10/13 01:24:37;;;;;;;;;14.67;14.33;;;;;;;;5017071;28;45243;-68
2022/10/13 01:27:06;;;;;;;;;17.33;15.33;;;;;;;;5014794;28;45480;-68
2022/10/13 01:29:50;;;;;;;;;13.00;13.00;;;;;;;;5016021;28;46772;-68
2022/10/13 01:32:15;;;;;;;;;15.33;13.67;;;;;;;;5016789;28;45495;-68
2022/10/13 01:34:51;;;;;;;;;12.67;12.67;;;;;;;;5016781;28;45329;-68
2022/10/13 01:37:29;;;;;;;;;18.00;16.00;;;;;;;;5017216;28;45456;-68
2022/10/13 01:40:00;;;;;;;;;16.33;13.33;;;;;;;;5016796;28;46690;-68
2022/10/13 01:42:44;;;;;;;;;13.00;12.00;;;;;;;;5016894;28;45380;-68
2022/10/13 01:45:09;;;;;;;;;14.33;14.00;;;;;;;;5014491;28;45504;-68
2022/10/13 01:47:35;;;;;;;;;14.67;14.67;;;;;;;;5016946;28;45474;-68
2022/10/13 01:50:01;;;;;;;;;14.00;12.67;;;;;;;;5016497;28;45192;-68
2022/10/13 01:52:31;;;;;;;;;17.33;14.00;;;;;;;;5015813;28;45335;-68
2022/10/13 01:55:03;;;;;;;;;20.00;15.67;;;;;;;;5016731;28;45585;-68
2022/10/13 01:57:36;;;;;;;;;16.00;14.00;;;;;;;;5019718;28;45396;-68
2022/10/13 02:00:15;;;;;;;;;16.00;16.00;;;;;;;;5019974;28;46733;-68
2022/10/13 02:02:43;;;;;;;;;16.00;14.67;;;;;;;;5016901;28;45310;-68
2022/10/13 02:05:09;;;;;;;;;16.67;16.67;;;;;;;;5023109;28;45431;-68
2022/10/13 02:07:34;;;;;;;;;15.33;15.00;;;;;;;;5028337;28;45488;-68
2022/10/13 02:10:04;;;;;;;;;13.33;13.33;;;;;;;;5024141;28;46480;-68
2022/10/13 02:12:33;;;;;;;;;16.00;15.33;;;;;;;;5033152;28;45398;-68
2022/10/13 02:14:59;;;;;;;;;18.33;16.33;;;;;;;;5019650;28;45317;-68
2022/10/13 02:17:26;;;;;;;;;20.67;17.00;;;;;;;;5017777;28;45456;-68
2022/10/13 02:19:52;;;;;;;;;17.33;17.33;;;;;;;;5018808;28;46593;-68
2022/10/13 02:22:19;;;;;;;;;11.67;11.67;;;;;;;;5019848;28;45831;-68
2022/10/13 02:24:44;;;;;;;;;17.67;17.00;;;;;;;;5020286;28;45271;-68
2022/10/13 02:27:09;;;;;;;;;15.67;15.00;;;;;;;;5019761;28;45366;-69
2022/10/13 02:29:47;;;;;;;;;17.00;14.00;;;;;;;;5019730;28;46370;-68
2022/10/13 02:32:12;;;;;;;;;16.00;13.67;;;;;;;;5019778;28;45447;-69
2022/10/13 02:34:37;;;;;;;;;11.33;9.33;;;;;;;;5017340;28;45262;-68
2022/10/13 02:37:02;;;;;;;;;16.00;15.33;;;;;;;;5016826;28;45472;-68
2022/10/13 02:39:27;;;;;;;;;17.33;15.33;;;;;;;;5019544;28;45486;-68
2022/10/13 02:41:52;;;;;;;;;18.67;16.67;;;;;;;;5019619;28;45561;-68
2022/10/13 02:44:18;;;;;;;;;14.33;14.33;;;;;;;;5019816;28;45412;-68
2022/10/13 02:46:43;;;;;;;;;18.33;17.67;;;;;;;;5019496;28;45425;-68
2022/10/13 02:49:09;;;;;;;;;18.67;15.67;;;;;;;;5019106;28;46118;-69
2022/10/13 02:51:34;;;;;;;;;18.67;15.67;;;;;;;;5019149;28;45917;-68
2022/10/13 02:53:59;;;;;;;;;20.00;16.67;;;;;;;;5019900;28;45304;-68
2022/10/13 02:56:24;;;;;;;;;17.33;15.67;;;;;;;;5017528;28;45508;-68
2022/10/13 02:58:50;;;;;;;;;19.00;16.67;;;;;;;;5016178;28;46125;-69
2022/10/13 03:01:15;;;;;;;;;18.67;15.00;;;;;;;;5018880;28;45565;-68
2022/10/13 03:03:41;;;;;;;;;16.67;16.33;;;;;;;;5019306;28;45484;-68
2022/10/13 03:06:06;;;;;;;;;16.00;14.67;;;;;;;;5019217;28;45766;-69
2022/10/13 03:08:32;;;;;;;;;17.00;15.00;;;;;;;;5017906;28;46675;-68
2022/10/13 03:10:58;;;;;;;;;19.33;15.67;;;;;;;;5019087;28;45318;-68
2022/10/13 03:13:23;;;;;;;;;22.33;15.67;;;;;;;;5017119;28;45546;-69
2022/10/13 03:15:48;;;;;;;;;16.67;15.67;;;;;;;;5018762;28;45503;-68
2022/10/13 03:18:14;;;;;;;;;18.33;16.33;;;;;;;;5018517;28;46404;-68
2022/10/13 03:20:39;;;;;;;;;16.00;14.00;;;;;;;;5019357;28;45848;-69
2022/10/13 03:23:05;;;;;;;;;18.33;14.00;;;;;;;;5019346;28;45431;-68
2022/10/13 03:25:31;;;;;;;;;17.67;16.00;;;;;;;;5016123;28;45365;-68
2022/10/13 03:27:56;;;;;;;;;19.33;17.67;;;;;;;;5018928;28;46407;-68
2022/10/13 03:30:21;;;;;;;;;19.67;16.00;;;;;;;;5018316;28;45413;-67
2022/10/13 03:32:46;;;;;;;;;17.50;15.00;;;;;;;;5018868;28;45216;-68
2022/10/13 03:35:12;;;;;;;;;17.00;16.00;;;;;;;;5019162;28;45263;-67
2022/10/13 03:37:37;;;;;;;;;14.67;14.67;;;;;;;;5018787;28;46657;-68
2022/10/13 03:40:02;;;;;;;;;12.67;8.67;;;;;;;;5018363;28;45365;-67
2022/10/13 03:42:28;;;;;;;;;16.67;14.00;;;;;;;;5018794;28;45202;-68
2022/10/13 03:44:53;;;;;;;;;26.67;24.00;;;;;;;;5016498;28;46021;-68
2022/10/13 03:47:18;;;;;;;;;20.00;18.00;;;;;;;;5018339;28;47060;-68
2022/10/13 03:49:43;;;;;;;;;17.67;16.00;;;;;;;;5018500;28;45444;-68
2022/10/13 03:52:08;;;;;;;;;18.00;17.00;;;;;;;;5018555;28;45439;-68
2022/10/13 03:54:34;;;;;;;;;19.00;14.00;;;;;;;;5018420;28;45326;-68
2022/10/13 03:56:59;;;;;;;;;17.67;13.33;;;;;;;;5018319;28;46838;-68
2022/10/13 03:59:24;;;;;;;;;19.67;17.67;;;;;;;;5018579;28;45341;-68
2022/10/13 04:01:49;;;;;;;;;15.00;15.00;;;;;;;;5012958;28;45362;-68
2022/10/13 04:04:15;;;;;;;;;19.67;15.00;;;;;;;;5018436;28;45151;-68
2022/10/13 04:06:41;;;;;;;;;16.33;15.00;;;;;;;;5017933;28;46515;-68
2022/10/13 04:09:06;;;;;;;;;18.00;15.33;;;;;;;;5018273;28;45223;-68
2022/10/13 04:11:32;;;;;;;;;17.33;15.67;;;;;;;;5018258;28;45496;-68
2022/10/13 04:13:57;;;;;;;;;16.00;13.67;;;;;;;;5018064;28;45468;-68
2022/10/13 04:16:25;;;;;;;;;19.33;16.00;;;;;;;;5017974;28;46162;-68
2022/10/13 04:18:54;;;;;;;;;16.00;14.00;;;;;;;;5015339;28;45513;-68
2022/10/13 04:21:20;;;;;;;;;18.67;15.67;;;;;;;;5017920;28;45243;-68
2022/10/13 04:23:45;;;;;;;;;16.67;14.67;;;;;;;;5018432;28;45321;-68
2022/10/13 04:26:19;;;;;;;;;16.67;14.67;;;;;;;;5017972;28;45352;-68
2022/10/13 04:28:46;;;;;;;;;17.33;14.33;;;;;;;;5017680;28;45685;-68
2022/10/13 04:31:11;;;;;;;;;20.00;17.00;;;;;;;;5017960;28;45230;-68
2022/10/13 04:33:36;;;;;;;;;17.67;14.33;;;;;;;;5018288;28;45202;-69
2022/10/13 04:36:03;;;;;;;;;18.00;17.33;;;;;;;;5015515;28;46674;-69
2022/10/13 04:38:28;;;;;;;;;16.33;14.00;;;;;;;;5012588;28;45286;-68
2022/10/13 04:40:53;;;;;;;;;14.00;14.00;;;;;;;;5017645;28;45305;-69
2022/10/13 04:43:18;;;;;;;;;16.33;15.33;;;;;;;;5017829;28;45369;-68
2022/10/13 04:45:44;;;;;;;;;17.67;16.67;;;;;;;;5017647;28;45536;-68
2022/10/13 04:48:09;;;;;;;;;17.00;17.00;;;;;;;;5016818;28;45783;-68
2022/10/13 04:50:34;;;;;;;;;17.00;16.00;;;;;;;;5017561;28;45374;-68
2022/10/13 04:52:59;;;;;;;;;18.00;16.00;;;;;;;;5017642;28;45333;-68
2022/10/13 04:55:24;;;;;;;;;18.33;17.00;;;;;;;;5012233;28;45544;-68
2022/10/13 04:57:50;;;;;;;;;14.00;14.00;;;;;;;;5017516;28;45513;-68
2022/10/13 05:00:16;;;;;;;;;20.67;17.67;;;;;;;;5017584;28;45551;-67
2022/10/13 05:02:41;;;;;;;;;21.33;17.33;;;;;;;;5017071;28;45954;-68
2022/10/13 05:05:07;;;;;;;;;14.00;12.33;;;;;;;;5016905;28;46264;-69
2022/10/13 05:07:32;;;;;;;;;16.00;15.33;;;;;;;;5017431;28;45320;-68
2022/10/13 05:09:57;;;;;;;;;17.33;14.00;;;;;;;;5016210;28;45305;-68
2022/10/13 05:12:22;;;;;;;;;15.33;12.67;;;;;;;;5006914;28;45248;-68
2022/10/13 05:14:48;;;;;;;;;17.00;14.33;;;;;;;;5014443;28;46301;-68
2022/10/13 05:17:13;;;;;;;;;15.00;15.00;;;;;;;;5017278;28;45374;-68
2022/10/13 05:19:38;;;;;;;;;17.33;15.00;;;;;;;;5016603;28;45437;-68
2022/10/13 05:22:04;;;;;;;;;20.67;18.33;;;;;;;;5017586;28;45397;-68
2022/10/13 05:24:35;;;;;;;;;21.00;17.33;;;;;;;;5016628;28;46454;-68
2022/10/13 05:27:05;;;;;;;;;17.67;15.33;;;;;;;;5016927;28;45318;-68
2022/10/13 05:29:30;;;;;;;;;18.33;15.67;;;;;;;;5013836;28;45400;-68
2022/10/13 05:31:55;;;;;;;;;14.33;14.33;;;;;;;;5016408;28;45444;-68
2022/10/13 05:34:20;;;;;;;;;16.00;13.00;;;;;;;;5017111;28;45549;-68
2022/10/13 05:36:46;;;;;;;;;16.67;15.00;;;;;;;;5016076;28;46887;-67
2022/10/13 05:39:11;;;;;;;;;12.00;10.67;;;;;;;;5013887;28;45404;-68
2022/10/13 05:41:38;;;;;;;;;18.00;14.33;;;;;;;;5017333;28;45544;-67
2022/10/13 05:44:05;;;;;;;;;20.67;13.00;;;;;;;;5016525;28;47115;-68
2022/10/13 05:46:30;;;;;;;;;16.67;14.67;;;;;;;;5015527;28;45531;-68
2022/10/13 05:48:56;;;;;;;;;19.33;15.00;;;;;;;;5016886;28;45373;-68
2022/10/13 05:51:31;;;;;;;;;17.33;13.33;;;;;;;;5016515;28;46602;-68
2022/10/13 05:54:05;;;;;;;;;15.00;13.00;;;;;;;;5013091;28;46294;-68
2022/10/13 05:56:34;;;;;;;;;14.67;14.67;;;;;;;;5013364;28;45333;-68
2022/10/13 05:59:02;;;;;;;;;13.00;13.00;;;;;;;;5015721;28;45624;-67
2022/10/13 06:01:30;;;;;;;;;16.00;14.67;;;;;;;;5016736;28;45373;-68
2022/10/13 06:03:57;;;;;;;;;14.00;10.67;;;;;;;;5016390;28;46389;-68
2022/10/13 06:06:23;;;;;;;;;15.33;14.00;;;;;;;;5016201;28;45508;-68
2022/10/13 06:08:49;;;;;;;;;14.00;13.33;;;;;;;;5016675;28;45168;-67
2022/10/13 06:11:14;;;;;;;;;16.00;15.00;;;;;;;;5016529;28;45289;-68
2022/10/13 06:13:39;;;;;;;;;12.67;12.67;;;;;;;;5011114;28;46351;-68
2022/10/13 06:16:05;;;;;;;;;24.33;16.33;;;;;;;;5016051;28;45334;-68
2022/10/13 06:18:30;;;;;;;;;13.00;12.00;;;;;;;;5016040;28;45472;-68
2022/10/13 06:20:55;;;;;;;;;24.00;19.33;;;;;;;;5016867;28;45226;-69
2022/10/13 06:23:20;;;;;;;;;31.33;28.67;;;;;;;;5014941;28;48317;-68
2022/10/13 06:25:46;;;;;;;;;20.00;19.00;;;;;;;;5015841;28;45219;-68
2022/10/13 06:28:12;;;;;;;;;18.67;15.33;;;;;;;;5015767;28;45339;-68
2022/10/13 06:30:37;;;;;;;;;17.67;15.00;;;;;;;;5013959;28;45190;-68
2022/10/13 06:33:02;;;;;;;;;21.00;20.00;;;;;;;;5016038;28;46586;-68
2022/10/13 06:35:27;;;;;;;;;20.00;15.00;;;;;;;;5016225;28;45353;-68
2022/10/13 06:37:53;;;;;;;;;18.33;17.33;;;;;;;;5014262;28;45743;-68
2022/10/13 06:40:18;;;;;;;;;19.67;17.33;;;;;;;;5015514;28;45478;-68
2022/10/13 06:42:48;;;;;;;;;22.67;18.67;;;;;;;;5017836;28;46069;-69
2022/10/13 06:45:13;;;;;;;;;20.67;17.33;;;;;;;;5019238;28;45364;-69
2022/10/13 06:47:38;;;;;;;;;22.33;20.00;;;;;;;;5019656;28;45547;-69
2022/10/13 06:50:04;;;;;;;;;18.33;18.33;;;;;;;;5020096;28;45391;-68
2022/10/13 06:52:29;;;;;;;;;20.00;16.00;;;;;;;;5019283;28;46950;-68
2022/10/13 06:54:54;;;;;;;;;21.00;18.33;;;;;;;;5019789;28;45234;-68
2022/10/13 06:57:19;;;;;;;;;25.33;20.67;;;;;;;;5019812;28;45208;-68
2022/10/13 06:59:44;;;;;;;;;18.33;16.67;;;;;;;;5019755;28;45367;-68
2022/10/13 07:02:10;;;;;;;;;25.67;20.33;;;;;;;;5019355;28;45765;-68
2022/10/13 07:04:35;;;;;;;;;22.33;16.33;;;;;;;;5019280;28;45376;-68
2022/10/13 07:07:00;;;;;;;;;18.67;18.67;;;;;;;;5019522;28;45874;-68
2022/10/13 07:09:26;;;;;;;;;22.67;15.33;;;;;;;;5019792;28;45433;-69
2022/10/13 07:11:52;;;;;;;;;31.00;30.00;;;;;;;;5019203;28;47021;-68
2022/10/13 07:14:17;;;;;;;;;26.33;22.33;;;;;;;;5019476;28;45305;-68
2022/10/13 07:16:42;;;;;;;;;23.00;19.00;;;;;;;;5019430;28;45214;-68
2022/10/13 07:19:07;;;;;;;;;39.67;34.33;;;;;;;;5019318;28;45313;-68
2022/10/13 07:21:33;;;;;;;;;22.00;19.67;;;;;;;;5019200;28;46133;-68
2022/10/13 07:23:58;;;;;;;;;22.00;20.50;;;;;;;;5018347;28;45505;-67
2022/10/13 07:26:23;;;;;;;;;20.33;17.67;;;;;;;;5018830;28;45405;-68
2022/10/13 07:28:48;;;;;;;;;19.67;17.33;;;;;;;;5019460;28;45346;-68
2022/10/13 07:31:18;;;;;;;;;25.67;24.00;;;;;;;;5018726;28;45488;-68
2022/10/13 07:33:45;;;;;;;;;24.00;23.00;;;;;;;;5019116;28;45689;-67
2022/10/13 07:36:11;;;;;;;;;17.33;16.67;;;;;;;;5018034;28;45440;-67
2022/10/13 07:38:37;;;;;;;;;24.67;22.67;;;;;;;;5019102;28;45433;-69
2022/10/13 07:41:03;;;;;;;;;19.33;18.67;;;;;;;;5018596;28;45336;-69
2022/10/13 07:43:28;;;;;;;;;24.67;20.67;;;;;;;;5018785;28;45755;-65
2022/10/13 07:45:53;;;;;;;;;25.00;24.33;;;;;;;;5019069;28;45342;-64
2022/10/13 07:48:18;;;;;;;;;29.33;24.67;;;;;;;;5018825;28;45531;-65
2022/10/13 07:50:43;;;;;;;;;28.00;26.33;;;;;;;;5018673;28;46608;-65
2022/10/13 07:53:09;;;;;;;;;22.33;20.33;;;;;;;;5018474;28;45379;-65
2022/10/13 07:55:35;;;;;;;;;25.00;22.00;;;;;;;;5018465;28;45435;-65
2022/10/13 07:58:00;;;;;;;;;26.33;22.33;;;;;;;;5018803;28;45391;-66
2022/10/13 08:00:25;;;;;;;;;22.67;20.00;;;;;;;;5018252;28;45510;-65
2022/10/13 08:02:51;;;;;;;;;31.33;23.33;;;;;;;;5018399;28;45508;-64
2022/10/13 08:05:16;;;;;;;;;24.00;20.00;;;;;;;;5018617;28;45463;-70
2022/10/13 08:07:41;;;;;;;;;32.33;23.33;;;;;;;;5018788;28;45344;-68
2022/10/13 08:10:07;;;;;;;;;26.67;26.00;;;;;;;;5018444;28;45409;-72
2022/10/13 08:12:34;;;;;;;;;22.00;22.00;;;;;;;;5018481;28;45357;-70
2022/10/13 08:14:59;;;;;;;;;26.67;23.67;;;;;;;;5018489;28;45456;-68
2022/10/13 08:17:24;;;;;;;;;32.67;26.00;;;;;;;;5017848;28;45267;-68
2022/10/13 08:19:50;;;;;;;;;26.67;23.67;;;;;;;;5017198;28;45459;-73
2022/10/13 08:22:15;;;;;;;;;25.33;25.33;;;;;;;;5017838;28;45329;-70
2022/10/13 08:24:41;;;;;;;;;23.00;23.00;;;;;;;;5017022;28;45344;-72
2022/10/13 08:27:08;;;;;;;;;22.00;19.00;;;;;;;;5018205;28;45262;-73
2022/10/13 08:29:33;;;;;;;;;35.00;29.67;;;;;;;;5017879;28;46502;-72
2022/10/13 08:31:59;;;;;;;;;25.67;21.67;;;;;;;;5017775;28;45491;-67
2022/10/13 08:34:24;;;;;;;;;25.67;21.33;;;;;;;;5018232;28;45455;-74
2022/10/13 08:36:52;;;;;;;;;29.00;24.00;;;;;;;;5018164;28;45325;-74
2022/10/13 08:39:17;;;;;;;;;26.67;24.33;;;;;;;;5017676;28;46555;-74
2022/10/13 08:41:43;;;;;;;;;27.67;22.33;;;;;;;;5017888;28;45488;-75
2022/10/13 08:44:26;;;;;;;;;27.67;23.00;;;;;;;;5018039;28;45314;-74
2022/10/13 08:46:54;;;;;;;;;29.00;24.00;;;;;;;;5017981;28;45432;-68
2022/10/13 08:49:19;;;;;;;;;23.67;22.33;;;;;;;;5017606;28;46239;-73
2022/10/13 08:51:45;;;;;;;;;26.00;21.67;;;;;;;;5017612;28;45232;-72
2022/10/13 08:54:13;;;;;;;;;24.00;23.33;;;;;;;;5017579;28;45299;-72
2022/10/13 08:56:38;;;;;;;;;26.67;23.67;;;;;;;;5017969;28;45381;-70
2022/10/13 08:59:03;;;;;;;;;26.67;24.00;;;;;;;;5017351;28;45455;-69
2022/10/13 09:01:33;;;;;;;;;26.33;25.33;;;;;;;;5017623;28;45374;-68
2022/10/13 09:04:01;;;;;;;;;26.33;22.33;;;;;;;;5017546;28;45204;-69
2022/10/13 09:06:30;;;;;;;;;28.33;24.67;;;;;;;;5016810;28;45257;-68
2022/10/13 09:08:55;;;;;;;;;35.67;25.67;;;;;;;;5017296;28;46412;-71
2022/10/13 09:11:21;;;;;;;;;28.00;26.67;;;;;;;;5017344;28;45349;-68
2022/10/13 09:13:46;;;;;;;;;30.67;28.00;;;;;;;;5017409;28;45459;-70
2022/10/13 09:16:12;;;;;;;;;28.33;26.67;;;;;;;;5017611;28;45356;-69
2022/10/13 09:18:37;;;;;;;;;34.00;29.67;;;;;;;;5017238;28;45448;-67
2022/10/13 09:21:17;;;;;;;;;26.67;24.67;;;;;;;;5007389;28;45224;-70
2022/10/13 09:23:42;;;;;;;;;25.67;25.67;;;;;;;;5005697;28;45495;-70
2022/10/13 09:26:12;;;;;;;;;31.33;29.00;;;;;;;;5017128;28;45434;-74
2022/10/13 09:28:37;;;;;;;;;35.33;29.67;;;;;;;;5016927;28;46305;-72
2022/10/13 09:31:06;;;;;;;;;29.33;26.00;;;;;;;;5017068;28;45341;-71
2022/10/13 09:33:35;;;;;;;;;30.67;25.67;;;;;;;;5017202;28;45293;-70
2022/10/13 09:36:01;;;;;;;;;33.33;31.00;;;;;;;;5017401;28;45360;-70
2022/10/13 09:38:27;;;;;;;;;29.00;27.67;;;;;;;;5016699;28;47228;-70
2022/10/13 09:41:04;;;;;;;;;28.00;25.33;;;;;;;;5016949;28;45402;-68
2022/10/13 09:43:31;;;;;;;;;28.67;25.33;;;;;;;;5016907;28;45381;-69
2022/10/13 09:45:57;;;;;;;;;25.67;24.00;;;;;;;;5017109;28;45389;-67
2022/10/13 09:48:25;;;;;;;;;31.67;26.67;;;;;;;;5016575;28;45505;-69
2022/10/13 09:50:52;;;;;;;;;25.00;24.00;;;;;;;;5016508;28;45389;-71
2022/10/13 09:53:23;;;;;;;;;28.67;28.33;;;;;;;;5017051;28;45398;-72
2022/10/13 09:55:48;;;;;;;;;32.33;27.33;;;;;;;;5017036;28;45282;-69
2022/10/13 09:58:27;;;;;;;;;33.33;29.00;;;;;;;;5016379;28;46516;-71
2022/10/13 10:00:53;;;;;;;;;27.67;27.67;;;;;;;;5016516;28;45379;-69
2022/10/13 10:03:21;;;;;;;;;32.00;29.33;;;;;;;;5016722;28;45373;-66
2022/10/13 10:05:49;;;;;;;;;32.33;28.00;;;;;;;;5016590;28;45475;-68
2022/10/13 10:08:33;;;;;;;;;29.67;22.67;;;;;;;;5016349;28;45916;-66
2022/10/13 10:11:00;;;;;;;;;29.67;27.00;;;;;;;;5016506;28;45435;-68
2022/10/13 10:13:25;;;;;;;;;27.33;25.33;;;;;;;;5016438;28;45313;-69
2022/10/13 10:16:06;;;;;;;;;22.33;22.00;;;;;;;;5016694;28;45576;-69
2022/10/13 10:18:34;;;;;;;;;23.67;21.00;;;;;;;;5019469;28;45354;-67
2022/10/13 10:21:05;;;;;;;;;25.00;23.00;;;;;;;;5019936;28;45424;-67
2022/10/13 10:23:46;;;;;;;;;26.33;22.00;;;;;;;;5020283;28;45479;-69
2022/10/13 10:26:21;;;;;;;;;21.67;19.67;;;;;;;;5019938;28;45473;-69
2022/10/13 10:28:53;;;;;;;;;22.33;20.00;;;;;;;;5019595;28;45324;-69
2022/10/13 10:31:18;;;;;;;;;30.33;23.33;;;;;;;;5019638;28;45559;-75
2022/10/13 10:34:02;;;;;;;;;24.67;22.00;;;;;;;;5020063;28;45448;-73
2022/10/13 10:36:37;;;;;;;;;25.00;21.67;;;;;;;;5019900;28;45293;-71
2022/10/13 10:39:21;;;;;;;;;21.00;21.00;;;;;;;;5019518;28;45482;-71
2022/10/13 10:41:54;;;;;;;;;24.00;20.67;;;;;;;;5019730;28;45469;-70
2022/10/13 10:44:23;;;;;;;;;28.00;23.67;;;;;;;;5019453;28;45488;-70
2022/10/13 10:46:49;;;;;;;;;27.33;23.67;;;;;;;;5020092;28;45457;-70
2022/10/13 10:49:34;;;;;;;;;21.33;20.33;;;;;;;;5019128;28;46173;-70
2022/10/13 10:52:01;;;;;;;;;26.67;23.00;;;;;;;;5011911;28;45544;-70
2022/10/13 10:54:29;;;;;;;;;22.00;21.33;;;;;;;;5000645;28;45426;-70
2022/10/13 10:56:59;;;;;;;;;23.33;21.67;;;;;;;;4999925;28;45559;-69
2022/10/13 10:59:25;;;;;;;;;21.00;20.00;;;;;;;;4999456;28;46191;-71
2022/10/13 11:01:50;;;;;;;;;22.00;19.67;;;;;;;;4999204;28;45430;-74
2022/10/13 11:04:30;;;;;;;;;21.00;19.33;;;;;;;;4999422;28;45292;-71
2022/10/13 11:06:56;;;;;;;;;21.33;19.00;;;;;;;;4999776;28;45325;-71
2022/10/13 11:09:39;;;;;;;;;18.67;17.33;;;;;;;;4999519;28;46200;-71
2022/10/13 11:12:20;;;;;;;;;20.67;17.67;;;;;;;;4999504;28;45219;-71
2022/10/13 11:14:45;;;;;;;;;17.33;16.33;;;;;;;;4999523;28;45349;-71
2022/10/13 11:17:26;;;;;;;;;21.67;21.67;;;;;;;;4999425;28;45446;-71
2022/10/13 11:19:52;;;;;;;;;26.00;22.00;;;;;;;;4999052;28;46686;-70
2022/10/13 11:22:18;;;;;;;;;25.67;20.00;;;;;;;;4999185;28;45370;-70
2022/10/13 11:24:44;;;;;;;;;28.33;20.67;;;;;;;;4999378;28;45449;-70
2022/10/13 11:27:15;;;;;;;;;19.67;19.33;;;;;;;;4999349;28;45377;-75
2022/10/13 11:29:56;;;;;;;;;22.33;21.00;;;;;;;;4997980;28;45282;-75
2022/10/13 11:32:25;;;;;;;;;23.00;20.67;;;;;;;;4998977;28;45303;-67
2022/10/13 11:35:01;;;;;;;;;21.67;19.67;;;;;;;;4999121;28;45441;-70
2022/10/13 11:37:43;;;;;;;;;19.00;19.00;;;;;;;;4999603;28;45203;-77
2022/10/13 11:40:34;;;;;;;;;20.67;17.00;;;;;;;;4998994;28;46652;-75
2022/10/13 11:43:08;;;;;;;;;25.00;21.67;;;;;;;;5005659;28;45373;-71
2022/10/13 11:45:34;;;;;;;;;25.67;21.67;;;;;;;;4999099;28;45386;-70
2022/10/13 11:48:08;;;;;;;;;31.67;27.33;;;;;;;;4999327;28;45299;-70
2022/10/13 11:50:34;;;;;;;;;18.00;18.00;;;;;;;;4998542;28;46437;-71
2022/10/13 11:53:20;;;;;;;;;22.33;17.00;;;;;;;;4998985;28;45343;-71
2022/10/13 11:55:51;;;;;;;;;23.00;19.67;;;;;;;;4998994;28;45275;-72
2022/10/13 11:58:26;;;;;;;;;21.33;17.00;;;;;;;;4999074;28;45461;-72
2022/10/13 12:00:51;;;;;;;;;18.67;17.67;;;;;;;;4998472;28;46089;-69
2022/10/13 12:03:27;;;;;;;;;22.00;20.67;;;;;;;;4998324;28;45617;-69
2022/10/13 12:05:54;;;;;;;;;20.33;19.33;;;;;;;;4998418;28;45158;-69
2022/10/13 12:08:20;;;;;;;;;23.33;17.33;;;;;;;;4999164;28;45268;-69
2022/10/13 12:10:50;;;;;;;;;20.33;17.67;;;;;;;;4998425;28;45278;-69
2022/10/13 12:13:20;;;;;;;;;23.00;17.00;;;;;;;;4998446;28;45447;-69
2022/10/13 12:15:45;;;;;;;;;14.33;13.00;;;;;;;;4998866;28;45369;-69
2022/10/13 12:18:22;;;;;;;;;11.67;11.67;;;;;;;;4998820;28;45319;-69
2022/10/13 12:20:51;;;;;;;;;21.00;16.00;;;;;;;;4998281;28;47107;-70
2022/10/13 12:23:16;;;;;;;;;15.33;12.67;;;;;;;;4998428;28;45272;-69
2022/10/13 12:25:45;;;;;;;;;13.67;11.33;;;;;;;;4998647;28;45267;-69
2022/10/13 12:28:16;;;;;;;;;16.33;14.33;;;;;;;;4998553;28;45454;-69
2022/10/13 12:30:49;;;;;;;;;16.33;11.67;;;;;;;;4978890;28;45254;-69
2022/10/13 12:33:19;;;;;;;;;13.00;10.00;;;;;;;;4978733;28;45462;-69
2022/10/13 12:35:44;;;;;;;;;11.33;9.67;;;;;;;;4978636;28;45311;-69
2022/10/13 12:38:16;;;;;;;;;14.67;14.33;;;;;;;;4979081;28;45266;-69
2022/10/13 12:40:42;;;;;;;;;13.33;10.67;;;;;;;;4978514;28;45795;-70
2022/10/13 12:43:09;;;;;;;;;10.67;7.00;;;;;;;;4978579;28;45401;-69
2022/10/13 12:45:35;;;;;;;;;9.33;9.33;;;;;;;;4978939;28;45351;-70
2022/10/13 12:48:00;;;;;;;;;14.00;12.00;;;;;;;;4978816;28;45458;-69
2022/10/13 12:50:28;;;;;;;;;11.67;7.33;;;;;;;;4978221;28;46502;-70
2022/10/13 12:53:11;;;;;;;;;13.33;10.67;;;;;;;;4978536;28;45327;-69
2022/10/13 12:55:45;;;;;;;;;13.00;11.00;;;;;;;;4978394;28;45322;-69
2022/10/13 12:58:18;;;;;;;;;10.67;10.67;;;;;;;;4978513;28;45323;-69
2022/10/13 13:00:43;;;;;;;;;9.33;8.67;;;;;;;;4977983;28;47392;-69
2022/10/13 13:03:20;;;;;;;;;12.67;11.00;;;;;;;;4978317;28;45406;-70
2022/10/13 13:05:47;;;;;;;;;7.25;7.25;;;;;;;;4978314;28;45397;-69
2022/10/13 13:08:19;;;;;;;;;10.67;8.33;;;;;;;;4978469;28;45429;-69
2022/10/13 13:10:53;;;;;;;;;14.67;10.67;;;;;;;;4978004;28;46637;-70
2022/10/13 13:13:21;;;;;;;;;18.00;10.33;;;;;;;;4978047;28;45390;-68
2022/10/13 13:15:46;;;;;;;;;9.67;8.00;;;;;;;;4987082;28;45519;-69
2022/10/13 13:18:23;;;;;;;;;8.33;8.00;;;;;;;;4995690;28;45433;-70
2022/10/13 13:20:49;;;;;;;;;7.00;7.00;;;;;;;;4997093;28;47401;-73
2022/10/13 13:23:17;;;;;;;;;7.00;6.00;;;;;;;;4997518;28;45545;-75
2022/10/13 13:25:43;;;;;;;;;5.00;5.00;;;;;;;;4997830;28;45264;-76
2022/10/13 13:28:12;;;;;;;;;11.67;9.00;;;;;;;;4997595;28;45378;-71
2022/10/13 13:30:38;;;;;;;;;9.67;9.67;;;;;;;;5017001;28;47244;-74
2022/10/13 13:33:03;;;;;;;;;5.00;5.00;;;;;;;;5017269;28;45399;-74
2022/10/13 13:35:28;;;;;;;;;7.25;7.25;;;;;;;;5017228;28;46066;-69
2022/10/13 13:37:53;;;;;;;;;28.00;28.00;;;;;;;;5017859;28;45361;-75
2022/10/13 13:40:23;;;;;;;;;6.00;6.00;;;;;;;;5016957;28;46702;-73
2022/10/13 13:42:49;;;;;;;;;7.00;7.00;;;;;;;;5014063;28;46286;-74
2022/10/13 13:45:15;;;;;;;;;7.00;5.75;;;;;;;;5017224;28;45445;-70
2022/10/13 13:47:40;;;;;;;;;8.25;7.25;;;;;;;;5017254;28;45514;-69
2022/10/13 13:50:12;;;;;;;;;7.25;7.25;;;;;;;;5017079;28;46339;-70
2022/10/13 13:52:37;;;;;;;;;12.25;9.00;;;;;;;;5018596;28;45259;-71
2022/10/13 13:55:03;;;;;;;;;12.33;10.00;;;;;;;;5020605;28;45309;-68
2022/10/13 13:57:28;;;;;;;;;10.00;7.00;;;;;;;;5020830;28;45421;-69
2022/10/13 13:59:53;;;;;;;;;8.33;5.67;;;;;;;;5020188;28;45530;-73
2022/10/13 14:02:19;;;;;;;;;8.00;6.00;;;;;;;;5020559;28;45449;-69
2022/10/13 14:04:45;;;;;;;;;9.75;7.00;;;;;;;;5020754;28;45352;-72
2022/10/13 14:07:10;;;;;;;;;6.25;6.25;;;;;;;;5020390;28;45428;-75
2022/10/13 14:09:36;;;;;;;;;12.00;10.00;;;;;;;;5019945;28;45677;-74
2022/10/13 14:12:01;;;;;;;;;6.67;6.00;;;;;;;;5020177;28;45444;-69
2022/10/13 14:14:28;;;;;;;;;8.25;7.00;;;;;;;;5020539;28;45381;-67
2022/10/13 14:16:53;;;;;;;;;14.00;12.33;;;;;;;;5020677;28;45235;-68
2022/10/13 14:19:18;;;;;;;;;13.33;10.00;;;;;;;;5019917;28;46575;-70
2022/10/13 14:21:44;;;;;;;;;7.50;7.00;;;;;;;;5020091;28;45319;-70